createdAt,value
2022-08-03T00:01:49.371Z,101601.34
2022-08-03T00:04:15.966Z,101602.50
2022-08-03T00:06:42.566Z,101606.66
2022-08-03T00:09:09.138Z,101600.63
2022-08-03T00:11:36.582Z,101597.97
2022-08-03T00:14:04.716Z,101595.69
2022-08-03T00:16:31.387Z,101598.34
2022-08-03T00:18:57.932Z,101596.09
2022-08-03T00:21:27.672Z,101594.59
2022-08-03T00:23:54.391Z,101592.69
2022-08-03T00:26:21.489Z,101593.44
2022-08-03T00:28:48.506Z,101598.41
2022-08-03T00:31:15.091Z,101588.94
2022-08-03T00:33:59.512Z,101589.69
2022-08-03T00:36:28.408Z,101589.28
2022-08-03T00:38:56.355Z,101591.94
2022-08-03T00:41:22.930Z,101580.56
2022-08-03T00:43:49.432Z,101586.63
2022-08-03T00:46:20.782Z,101590.44
2022-08-03T00:48:49.585Z,101586.28
2022-08-03T00:51:16.447Z,101590.44
2022-08-03T00:53:43.444Z,101588.94
2022-08-03T00:56:13.853Z,101579.06
2022-08-03T00:58:40.378Z,101582.13
2022-08-03T01:01:07.371Z,101577.22
2022-08-03T01:03:34.494Z,101571.91
2022-08-03T01:06:13.015Z,101571.16
2022-08-03T01:09:00.330Z,101577.63
2022-08-03T01:11:59.915Z,101569.66
2022-08-03T01:14:30.065Z,101566.19
2022-08-03T01:17:01.301Z,101574.97
2022-08-03T01:19:49.072Z,101581.44
2022-08-03T01:22:40.429Z,101573.91
2022-08-03T01:25:23.394Z,101564.03
2022-08-03T01:28:25.097Z,101577.69
2022-08-03T01:30:54.901Z,101576.53
2022-08-03T01:33:27.144Z,101574.66
2022-08-03T01:36:07.674Z,101573.53
2022-08-03T01:38:39.483Z,101576.19
2022-08-03T01:41:13.808Z,101564.41
2022-08-03T01:44:27.004Z,101567.06
2022-08-03T01:46:33.065Z,101566.31
2022-08-03T01:49:00.765Z,101565.16
2022-08-03T01:51:58.713Z,101561.00
2022-08-03T01:54:29.265Z,101564.81
2022-08-03T01:56:57.603Z,101565.56
2022-08-03T01:59:26.053Z,101564.81
2022-08-03T02:02:29.145Z,101564.47
2022-08-03T02:04:43.593Z,101559.16
2022-08-03T02:07:11.398Z,101554.19
2022-08-03T02:09:40.206Z,101558.00
2022-08-03T02:12:11.393Z,101555.34
2022-08-03T02:14:40.843Z,101559.50
2022-08-03T02:17:09.359Z,101563.31
2022-08-03T02:19:36.859Z,101557.66
2022-08-03T02:22:05.719Z,101557.66
2022-08-03T02:24:32.561Z,101560.31
2022-08-03T02:27:00.741Z,101560.31
2022-08-03T02:29:39.689Z,101557.66
2022-08-03T02:32:10.452Z,101553.09
2022-08-03T02:34:38.601Z,101548.22
2022-08-03T02:37:07.671Z,101551.59
2022-08-03T02:39:35.752Z,101556.19
2022-08-03T02:42:03.229Z,101548.22
2022-08-03T02:44:32.900Z,101546.72
2022-08-03T02:47:05.058Z,101544.81
2022-08-03T02:49:50.776Z,101546.72
2022-08-03T02:52:20.714Z,101534.94
2022-08-03T02:54:51.188Z,101533.44
2022-08-03T02:57:19.986Z,101531.19
2022-08-03T02:59:47.705Z,101533.09
2022-08-03T03:02:16.337Z,101534.59
2022-08-03T03:05:01.316Z,101533.09
2022-08-03T03:07:33.947Z,101525.13
2022-08-03T03:10:10.780Z,101523.66
2022-08-03T03:12:38.464Z,101527.78
2022-08-03T03:15:06.554Z,101522.50
2022-08-03T03:17:34.861Z,101531.25
2022-08-03T03:20:02.544Z,101529.34
2022-08-03T03:22:31.012Z,101525.16
2022-08-03T03:24:57.937Z,101527.81
2022-08-03T03:27:25.422Z,101527.09
2022-08-03T03:29:54.185Z,101524.78
2022-08-03T03:32:20.701Z,101527.81
2022-08-03T03:34:48.010Z,101521.78
2022-08-03T03:37:14.583Z,101527.09
2022-08-03T03:39:41.133Z,101521.78
2022-08-03T03:42:07.793Z,101519.84
2022-08-03T03:44:34.317Z,101520.28
2022-08-03T03:47:01.043Z,101527.50
2022-08-03T03:49:27.757Z,101519.53
2022-08-03T03:51:55.582Z,101521.03
2022-08-03T03:54:22.102Z,101527.50
2022-08-03T03:56:52.203Z,101524.84
2022-08-03T03:59:18.872Z,101527.50
2022-08-03T04:01:45.802Z,101525.22
2022-08-03T04:04:30.793Z,101523.75
2022-08-03T04:07:15.807Z,101526.41
2022-08-03T04:10:08.787Z,101523.41
2022-08-03T04:12:50.098Z,101523.00
2022-08-03T04:15:20.837Z,101532.88
2022-08-03T04:17:50.247Z,101535.53
2022-08-03T04:20:21.396Z,101532.88
2022-08-03T04:22:51.326Z,101530.97
2022-08-03T04:25:19.514Z,101527.13
2022-08-03T04:28:08.095Z,101532.88
2022-08-03T04:30:37.627Z,101528.72
2022-08-03T04:33:04.530Z,101530.97
2022-08-03T04:36:01.610Z,101538.94
2022-08-03T04:38:22.480Z,101535.53
2022-08-03T04:40:49.332Z,101547.63
2022-08-03T04:43:18.506Z,101535.53
2022-08-03T04:45:47.237Z,101535.53
2022-08-03T04:48:15.314Z,101531.72
2022-08-03T04:50:43.323Z,101542.34
2022-08-03T04:53:09.926Z,101545.72
2022-08-03T04:55:36.611Z,101542.97
2022-08-03T04:58:03.963Z,101540.97
2022-08-03T05:00:30.873Z,101545.84
2022-08-03T05:02:57.535Z,101554.50
2022-08-03T05:05:24.106Z,101552.50
2022-08-03T05:07:50.869Z,101553.25
2022-08-03T05:10:18.143Z,101552.13
2022-08-03T05:12:47.609Z,101549.41
2022-08-03T05:15:14.713Z,101557.69
2022-08-03T05:17:41.517Z,101561.44
2022-08-03T05:20:08.815Z,101563.69
2022-08-03T05:22:35.322Z,101568.22
2022-08-03T05:25:03.058Z,101570.47
2022-08-03T05:27:29.654Z,101572.69
2022-08-03T05:29:56.198Z,101570.47
2022-08-03T05:32:42.674Z,101574.28
2022-08-03T05:35:57.366Z,101579.59
2022-08-03T05:37:56.090Z,101567.38
2022-08-03T05:40:22.654Z,101568.13
2022-08-03T05:42:49.826Z,101570.78
2022-08-03T05:45:18.543Z,101579.09
2022-08-03T05:47:46.267Z,101565.41
2022-08-03T05:50:14.193Z,101571.47
2022-08-03T05:52:41.558Z,101565.75
2022-08-03T05:55:08.851Z,101569.53
2022-08-03T05:57:35.605Z,101575.19
2022-08-03T06:00:07.640Z,101567.88
2022-08-03T06:02:34.275Z,101578.03
2022-08-03T06:05:00.757Z,101576.81
2022-08-03T06:07:27.658Z,101574.47
2022-08-03T06:10:35.197Z,101568.38
2022-08-03T06:12:41.408Z,101575.94
2022-08-03T06:15:09.849Z,101572.38
2022-08-03T06:17:48.618Z,101571.97
2022-08-03T06:20:19.656Z,101576.47
2022-08-03T06:22:50.683Z,101579.06
2022-08-03T06:25:21.203Z,101572.59
2022-08-03T06:27:48.208Z,101573.66
2022-08-03T06:30:19.269Z,101574.75
2022-08-03T06:32:51.931Z,101573.19
2022-08-03T06:35:19.432Z,101581.84
2022-08-03T06:37:49.380Z,101583.75
2022-08-03T06:40:21.911Z,101582.16
2022-08-03T06:42:51.156Z,101586.69
2022-08-03T06:45:19.326Z,101583.63
2022-08-03T06:47:46.087Z,101579.78
2022-08-03T06:50:17.920Z,101578.31
2022-08-03T06:52:45.655Z,101579.38
2022-08-03T06:55:12.431Z,101582.69
2022-08-03T06:57:38.954Z,101575.81
2022-08-03T07:00:11.866Z,101579.59
2022-08-03T07:02:40.012Z,101577.31
2022-08-03T07:05:07.908Z,101578.84
2022-08-03T07:07:34.514Z,101588.63
2022-08-03T07:10:02.250Z,101590.84
2022-08-03T07:12:30.362Z,101587.75
2022-08-03T07:15:01.399Z,101578.16
2022-08-03T07:17:30.211Z,101583.84
2022-08-03T07:19:57.093Z,101593.63
2022-08-03T07:22:23.713Z,101591.22
2022-08-03T07:24:50.214Z,101591.59
2022-08-03T07:27:17.215Z,101601.78
2022-08-03T07:29:43.729Z,101601.69
2022-08-03T07:32:10.298Z,101610.06
2022-08-03T07:34:36.889Z,101604.66
2022-08-03T07:37:03.425Z,101602.31
2022-08-03T07:39:30.201Z,101609.44
2022-08-03T07:41:56.805Z,101612.09
2022-08-03T07:44:23.326Z,101612.78
2022-08-03T07:46:50.892Z,101610.88
2022-08-03T07:49:18.578Z,101610.03
2022-08-03T07:51:45.176Z,101612.38
2022-08-03T07:54:11.921Z,101601.22
2022-08-03T07:56:39.148Z,101606.16
2022-08-03T07:59:05.875Z,101602.56
2022-08-03T08:01:35.973Z,101601.41
2022-08-03T08:04:02.561Z,101600.97
2022-08-03T08:06:29.068Z,101600.22
2022-08-03T08:08:59.504Z,101602.88
2022-08-03T08:11:25.981Z,101600.22
2022-08-03T08:13:52.488Z,101592.16
2022-08-03T08:16:18.993Z,101597.50
2022-08-03T08:18:45.477Z,101593.25
2022-08-03T08:21:11.945Z,101597.09
2022-08-03T08:23:43.829Z,101590.59
2022-08-03T08:26:12.962Z,101593.16
2022-08-03T08:28:39.644Z,101591.25
2022-08-03T08:31:06.737Z,101593.16
2022-08-03T08:34:02.753Z,101588.59
2022-08-03T08:36:21.325Z,101595.84
2022-08-03T08:38:47.992Z,101602.22
2022-08-03T08:41:15.790Z,101591.25
2022-08-03T08:43:42.383Z,101601.47
2022-08-03T08:46:12.782Z,101596.16
2022-08-03T08:48:42.678Z,101603.75
2022-08-03T08:51:11.624Z,101602.97
2022-08-03T08:53:41.552Z,101599.56
2022-08-03T08:56:10.566Z,101597.75
2022-08-03T08:58:40.807Z,101599.25
2022-08-03T09:01:08.108Z,101600.41
2022-08-03T09:03:34.643Z,101600.41
2022-08-03T09:06:02.577Z,101604.97
2022-08-03T09:08:31.178Z,101601.91
2022-08-03T09:13:24.349Z,101603.75
2022-08-03T09:16:10.911Z,101599.91
2022-08-03T09:18:38.247Z,101603.31
2022-08-03T09:21:30.241Z,101605.22
2022-08-03T09:24:03.714Z,101598.75
2022-08-03T09:26:31.762Z,101602.16
2022-08-03T09:29:06.795Z,101603.75
2022-08-03T09:31:43.201Z,101595.31
2022-08-03T09:34:16.129Z,101607.63
2022-08-03T09:36:48.118Z,101605.78
2022-08-03T09:39:40.574Z,101595.75
2022-08-03T09:42:17.568Z,101592.84
2022-08-03T09:44:47.442Z,101601.00
2022-08-03T09:47:16.962Z,101603.13
2022-08-03T09:49:57.750Z,101606.03
2022-08-03T09:52:49.661Z,101611.06
2022-08-03T09:55:23.622Z,101610.34
2022-08-03T09:58:09.464Z,101608.84
2022-08-03T10:00:55.507Z,101602.34
2022-08-03T10:03:23.234Z,101607.66
2022-08-03T10:05:49.791Z,101613.72
2022-08-03T10:08:18.439Z,101612.66
2022-08-03T10:10:47.923Z,101614.56
2022-08-03T10:13:15.962Z,101616.91
2022-08-03T10:16:22.446Z,101614.03
2022-08-03T10:18:29.053Z,101601.59
2022-08-03T10:21:07.399Z,101603.22
2022-08-03T10:23:35.025Z,101602.56
2022-08-03T10:26:05.509Z,101605.00
2022-08-03T10:28:35.990Z,101608.06
2022-08-03T10:31:04.931Z,101597.94
2022-08-03T10:33:51.786Z,101597.38
2022-08-03T10:36:23.698Z,101606.09
2022-08-03T10:38:53.271Z,101598.59
2022-08-03T10:41:22.028Z,101595.63
2022-08-03T10:43:58.638Z,101582.81
2022-08-03T10:46:27.322Z,101582.09
2022-08-03T10:48:54.983Z,101584.00
2022-08-03T10:51:22.810Z,101584.81
2022-08-03T10:53:55.409Z,101591.00
2022-08-03T10:56:53.418Z,101574.38
2022-08-03T10:59:46.600Z,101585.44
2022-08-03T11:02:14.411Z,101580.53
2022-08-03T11:04:41.779Z,101577.94
2022-08-03T11:07:21.437Z,101576.09
2022-08-03T11:09:53.399Z,101582.94
2022-08-03T11:12:31.198Z,101576.09
2022-08-03T11:15:05.165Z,101570.06
2022-08-03T11:17:33.775Z,101572.38
2022-08-03T11:20:13.825Z,101569.78
2022-08-03T11:23:01.047Z,101573.59
2022-08-03T11:25:54.366Z,101577.47
2022-08-03T11:28:28.535Z,101572.53
2022-08-03T11:30:55.130Z,101577.13
2022-08-03T11:33:31.225Z,101581.69
2022-08-03T11:36:00.311Z,101578.31
2022-08-03T11:38:26.780Z,101579.47
2022-08-03T11:40:54.495Z,101576.44
2022-08-03T11:43:31.320Z,101578.81
2022-08-03T11:46:06.582Z,101565.50
2022-08-03T11:48:35.917Z,101571.13
2022-08-03T11:51:04.187Z,101577.63
2022-08-03T11:53:30.955Z,101572.69
2022-08-03T11:56:02.625Z,101573.53
2022-08-03T11:59:01.530Z,101571.63
2022-08-03T12:01:22.875Z,101569.38
2022-08-03T12:03:50.546Z,101579.31
2022-08-03T12:06:18.653Z,101580.03
2022-08-03T12:08:45.957Z,101575.44
2022-08-03T12:11:15.015Z,101581.97
2022-08-03T12:14:10.734Z,101577.81
2022-08-03T12:16:34.468Z,101572.88
2022-08-03T12:19:06.600Z,101572.13
2022-08-03T12:21:33.370Z,101570.97
2022-08-03T12:24:02.137Z,101573.31
2022-08-03T12:26:30.196Z,101575.88
2022-08-03T12:28:56.821Z,101572.47
2022-08-03T12:31:23.334Z,101573.97
2022-08-03T12:34:05.194Z,101575.13
2022-08-03T12:36:34.353Z,101572.47
2022-08-03T12:39:03.699Z,101569.47
2022-08-03T12:41:34.070Z,101584.28
2022-08-03T12:44:03.453Z,101574.38
2022-08-03T12:46:38.030Z,101573.22
2022-08-03T12:49:11.523Z,101573.97
2022-08-03T12:51:57.986Z,101577.81
2022-08-03T12:54:27.941Z,101585.78
2022-08-03T12:57:05.653Z,101577.38
2022-08-03T12:59:53.474Z,101576.63
2022-08-03T13:02:25.837Z,101579.31
2022-08-03T13:04:54.670Z,101573.97
2022-08-03T13:07:22.310Z,101576.63
2022-08-03T13:09:53.265Z,101573.97
2022-08-03T13:12:28.706Z,101567.16
2022-08-03T13:14:59.083Z,101567.16
2022-08-03T13:17:26.792Z,101573.22
2022-08-03T13:19:53.943Z,101581.97
2022-08-03T13:22:26.142Z,101589.19
2022-08-03T13:24:57.614Z,101575.44
2022-08-03T13:28:03.619Z,101573.97
2022-08-03T13:30:12.797Z,101569.81
2022-08-03T13:32:39.897Z,101569.38
2022-08-03T13:35:07.592Z,101564.81
2022-08-03T13:37:34.733Z,101572.38
2022-08-03T13:40:05.612Z,101567.81
2022-08-03T13:42:35.143Z,101574.22
2022-08-03T13:45:03.195Z,101578.31
2022-08-03T13:47:31.149Z,101572.88
2022-08-03T13:50:03.611Z,101573.63
2022-08-03T13:52:34.295Z,101570.44
2022-08-03T13:55:08.965Z,101567.53
2022-08-03T13:58:04.030Z,101565.53
2022-08-03T14:00:27.614Z,101573.69
2022-08-03T14:03:06.701Z,101576.06
2022-08-03T14:05:39.202Z,101577.72
2022-08-03T14:08:07.337Z,101571.41
2022-08-03T14:10:35.541Z,101571.06
2022-08-03T14:13:02.395Z,101564.94
2022-08-03T14:15:29.011Z,101558.22
2022-08-03T14:17:58.543Z,101564.25
2022-08-03T14:20:37.108Z,101555.41
2022-08-03T14:23:07.010Z,101547.47
2022-08-03T14:25:44.496Z,101543.38
2022-08-03T14:28:17.843Z,101549.03
2022-08-03T14:30:44.408Z,101550.00
2022-08-03T14:33:10.877Z,101549.59
2022-08-03T14:35:37.426Z,101545.59
2022-08-03T14:38:03.928Z,101547.72
2022-08-03T14:40:30.464Z,101544.41
2022-08-03T14:42:57.338Z,101538.06
2022-08-03T14:45:23.873Z,101541.06
2022-08-03T14:50:27.989Z,101544.84
2022-08-03T14:50:44.190Z,101527.31
2022-08-03T14:53:12.437Z,101526.09
2022-08-03T14:55:49.823Z,101530.66
2022-08-03T14:58:21.224Z,101521.47
2022-08-03T15:00:49.019Z,101515.75
2022-08-03T15:03:16.972Z,101527.44
2022-08-03T15:05:44.182Z,101529.31
2022-08-03T15:08:10.694Z,101520.06
2022-08-03T15:10:44.086Z,101511.78
2022-08-03T15:13:11.668Z,101516.16
2022-08-03T15:15:38.153Z,101509.16
2022-08-03T15:18:04.861Z,101501.25
2022-08-03T15:20:43.354Z,101505.06
2022-08-03T15:23:10.786Z,101512.56
2022-08-03T15:26:28.152Z,101505.00
2022-08-03T15:28:23.883Z,101501.72
2022-08-03T15:30:53.072Z,101497.34
2022-08-03T15:33:20.239Z,101506.28
2022-08-03T15:35:47.768Z,101513.16
2022-08-03T15:38:14.515Z,101504.19
2022-08-03T15:40:41.288Z,101500.50
2022-08-03T15:43:08.013Z,101501.72
2022-08-03T15:45:36.539Z,101499.91
2022-08-03T15:48:05.091Z,101496.91
2022-08-03T15:50:31.731Z,101497.84
2022-08-03T15:52:58.321Z,101498.41
2022-08-03T15:55:24.827Z,101492.84
2022-08-03T15:59:04.293Z,101478.56
2022-08-03T16:00:38.545Z,101482.50
2022-08-03T16:03:05.503Z,101485.28
2022-08-03T16:05:32.485Z,101486.75
2022-08-03T16:08:03.717Z,101487.84
2022-08-03T16:10:32.100Z,101478.44
2022-08-03T16:13:00.127Z,101484.44
2022-08-03T16:15:27.034Z,101474.53
2022-08-03T16:17:53.737Z,101480.91
2022-08-03T16:20:31.451Z,101480.16
2022-08-03T16:23:09.124Z,101477.59
2022-08-03T16:25:39.737Z,101476.53
2022-08-03T16:28:13.030Z,101473.47
2022-08-03T16:30:41.712Z,101475.03
2022-08-03T16:33:08.759Z,101475.47
2022-08-03T16:35:35.302Z,101468.84
2022-08-03T16:38:05.363Z,101470.78
2022-08-03T16:40:34.819Z,101464.84
2022-08-03T16:43:01.989Z,101464.56
2022-08-03T16:45:28.672Z,101464.81
2022-08-03T16:48:01.662Z,101468.72
2022-08-03T16:50:32.540Z,101467.66
2022-08-03T16:52:59.044Z,101469.25
2022-08-03T16:55:48.998Z,101470.88
2022-08-03T16:58:12.499Z,101469.78
2022-08-03T17:00:41.246Z,101469.13
2022-08-03T17:03:12.757Z,101471.47
2022-08-03T17:05:47.706Z,101471.16
2022-08-03T17:08:15.750Z,101469.25
2022-08-03T17:10:45.207Z,101476.03
2022-08-03T17:13:21.905Z,101468.03
2022-08-03T17:15:58.381Z,101467.22
2022-08-03T17:18:34.070Z,101460.81
2022-08-03T17:21:06.085Z,101469.25
2022-08-03T17:23:53.427Z,101464.75
2022-08-03T17:26:22.440Z,101469.31
2022-08-03T17:28:57.745Z,101459.84
2022-08-03T17:31:32.173Z,101461.75
2022-08-03T17:34:01.500Z,101464.09
2022-08-03T17:37:00.924Z,101474.00
2022-08-03T17:39:23.575Z,101462.28
2022-08-03T17:42:00.782Z,101465.66
2022-08-03T17:44:33.219Z,101464.09
2022-08-03T17:47:08.221Z,101463.66
2022-08-03T17:49:41.019Z,101464.00
2022-08-03T17:52:17.638Z,101468.91
2022-08-03T17:55:50.657Z,101466.59
2022-08-03T17:58:02.668Z,101470.72
2022-08-03T18:03:58.657Z,101468.50
2022-08-03T18:06:30.453Z,101468.50
2022-08-03T18:09:00.175Z,101471.16
2022-08-03T18:11:35.608Z,101473.44
2022-08-03T18:14:16.056Z,101470.78
2022-08-03T18:17:05.342Z,101468.56
2022-08-03T18:20:03.482Z,101475.06
2022-08-03T18:22:26.868Z,101467.06
2022-08-03T18:24:55.821Z,101467.81
2022-08-03T18:27:23.338Z,101461.75
2022-08-03T18:30:09.896Z,101461.75
2022-08-03T18:32:38.632Z,101467.81
2022-08-03T18:35:06.532Z,101469.31
2022-08-03T18:37:51.880Z,101470.47
2022-08-03T18:40:21.003Z,101466.31
2022-08-03T18:42:52.858Z,101460.59
2022-08-03T18:45:55.875Z,101460.59
2022-08-03T18:48:27.113Z,101458.25
2022-08-03T18:51:01.740Z,101455.19
2022-08-03T18:54:03.419Z,101459.34
2022-08-03T18:56:32.558Z,101466.88
2022-08-03T18:59:08.167Z,101461.56
2022-08-03T19:01:57.752Z,101456.34
2022-08-03T19:04:30.715Z,101460.69
2022-08-03T19:07:09.379Z,101465.66
2022-08-03T19:09:48.051Z,101468.47
2022-08-03T19:12:49.789Z,101473.78
2022-08-03T19:15:21.203Z,101473.78
2022-08-03T19:18:08.757Z,101476.47
2022-08-03T19:20:37.730Z,101483.66
2022-08-03T19:23:04.406Z,101479.50
2022-08-03T19:25:38.366Z,101482.16
2022-08-03T19:28:07.377Z,101490.16
2022-08-03T19:30:38.943Z,101486.75
2022-08-03T19:33:11.359Z,101493.97
2022-08-03T19:35:51.520Z,101493.22
2022-08-03T19:38:28.767Z,101491.75
2022-08-03T19:41:02.452Z,101491.75
2022-08-03T19:43:32.941Z,101489.94
2022-08-03T19:48:59.209Z,101499.41
2022-08-03T19:51:59.021Z,101499.84
2022-08-03T19:54:29.345Z,101493.00
2022-08-03T19:56:57.532Z,101491.84
2022-08-03T19:59:24.517Z,101490.34
2022-08-03T20:01:53.039Z,101493.09
2022-08-03T20:04:21.260Z,101492.03
2022-08-03T20:06:49.559Z,101489.38
2022-08-03T20:09:17.980Z,101490.53
2022-08-03T20:11:45.177Z,101489.78
2022-08-03T20:14:12.136Z,101488.28
2022-08-03T20:16:48.427Z,101487.56
2022-08-03T20:19:16.596Z,101489.88
2022-08-03T20:21:47.901Z,101481.13
2022-08-03T20:24:36.572Z,101480.38
2022-08-03T20:27:10.766Z,101480.06
2022-08-03T20:30:07.175Z,101478.56
2022-08-03T20:32:34.358Z,101476.31
2022-08-03T20:35:00.904Z,101471.00
2022-08-03T20:37:27.359Z,101470.25
2022-08-03T20:39:57.023Z,101473.66
2022-08-03T20:42:23.868Z,101463.03
2022-08-03T20:45:04.276Z,101466.44
2022-08-03T20:47:32.910Z,101463.44
2022-08-03T20:50:03.870Z,101463.88
2022-08-03T20:52:32.169Z,101467.25
2022-08-03T20:54:59.205Z,101468.00
2022-08-03T20:57:33.250Z,101465.03
2022-08-03T21:00:01.049Z,101458.22
2022-08-03T21:02:28.776Z,101458.66
2022-08-03T21:04:57.349Z,101466.53
2022-08-03T21:07:24.497Z,101458.09
2022-08-03T21:10:13.511Z,101459.16
2022-08-03T21:12:44.758Z,101453.94
2022-08-03T21:12:56.255Z,101470.00
2022-08-03T21:13:09.654Z,101495.25
2022-08-03T21:16:02.229Z,101455.25
2022-08-03T21:18:09.501Z,101450.09
2022-08-03T21:20:36.235Z,101454.75
2022-08-03T21:23:03.345Z,101448.75
2022-08-03T21:25:31.837Z,101447.25
2022-08-03T21:27:59.196Z,101439.72
2022-08-03T21:30:28.167Z,101440.47
2022-08-03T21:32:56.378Z,101442.03
2022-08-03T21:35:24.404Z,101441.28
2022-08-03T21:38:10.240Z,101439.06
2022-08-03T21:40:38.018Z,101437.56
2022-08-03T21:43:04.556Z,101444.38
2022-08-03T21:45:34.819Z,101440.97
2022-08-03T21:48:07.188Z,101436.78
2022-08-03T21:50:36.045Z,101436.78
2022-08-03T21:53:03.462Z,101430.34
2022-08-03T21:55:31.023Z,101437.56
2022-08-03T21:58:02.699Z,101440.22
2022-08-03T22:00:29.240Z,101429.59
2022-08-03T22:02:58.333Z,101435.66
2022-08-03T22:05:42.918Z,101436.06
2022-08-03T22:08:13.344Z,101427.75
2022-08-03T22:10:40.503Z,101430.75
2022-08-03T22:13:07.073Z,101431.16
2022-08-03T22:15:33.570Z,101423.91
2022-08-03T22:18:03.630Z,101431.91
2022-08-03T22:20:30.578Z,101427.00
2022-08-03T22:23:01.846Z,101430.09
2022-08-03T22:25:30.695Z,101433.16
2022-08-03T22:28:03.510Z,101422.53
2022-08-03T22:30:31.596Z,101420.28
2022-08-03T22:32:59.322Z,101419.53
2022-08-03T22:35:27.769Z,101418.03
2022-08-03T22:37:58.451Z,101429.84
2022-08-03T22:40:26.669Z,101421.13
2022-08-03T22:42:53.714Z,101411.22
2022-08-03T22:45:45.868Z,101412.34
2022-08-03T22:48:08.262Z,101413.13
2022-08-03T22:50:34.862Z,101409.69
2022-08-03T22:53:01.454Z,101412.34
2022-08-03T22:55:27.989Z,101415.88
2022-08-03T22:57:56.040Z,101405.22
2022-08-03T23:00:24.587Z,101409.06
2022-08-03T23:02:52.055Z,101404.91
2022-08-03T23:06:01.900Z,101407.56
2022-08-03T23:08:14.906Z,101402.66
2022-08-03T23:10:46.795Z,101406.06
2022-08-03T23:13:16.384Z,101404.91
2022-08-03T23:15:50.403Z,101401.50
2022-08-03T23:18:20.819Z,101399.16
2022-08-03T23:20:51.475Z,101399.59
2022-08-03T23:23:19.948Z,101402.56
2022-08-03T23:25:49.642Z,101401.81
2022-08-03T23:28:16.456Z,101401.81
2022-08-03T23:30:44.822Z,101398.44
2022-08-03T23:33:16.355Z,101401.09
2022-08-03T23:36:20.005Z,101396.94
2022-08-03T23:38:46.161Z,101398.09
2022-08-03T23:41:13.570Z,101391.28
2022-08-03T23:43:50.852Z,101392.47
2022-08-03T23:46:21.130Z,101385.97
2022-08-03T23:48:47.615Z,101381.09
2022-08-03T23:51:27.857Z,101379.56
2022-08-03T23:54:03.322Z,101385.66
2022-08-03T23:56:56.661Z,101378.81
2022-08-03T23:59:43.906Z,101373.56
